• Join FlightAware (Why Join?)
  • Login
  • US Flag 
12:06PM EDT


 

Airport Tracker/Info


-or-


 

Live Flight TrackerFlight Track Log ✈ CHQ4731 ✈ 22-Jun-2013 ✈ KIND - KORD

Flight Track Log - Related Links

Times and Time Zones

All times are in EDT time to prevent confusion due to time zone crossing. See the CHQ4731 flight status page for this flight to view local times or setup timezone preferences in your user account.

Time Position Orientation Groundspeed Altitude Reporting Facility
EDT Latitude Longitude Course Direction KTS MPH feet Rate Location/Type
12:14PM 39.7000 -86.3167 44° Northeast 149 171 1,500  Level Indianapolis TRACON
12:15PM 39.7333 -86.3667 311° West 224 258 4,500 1,920 Climbing Indianapolis TRACON
12:16PM 39.7675 -86.3703 355° North 226 260 5,500 1,920 Climbing Indianapolis Center
12:17PM 39.9991 -86.2812 43° Northeast  Level FlightAware Approximate
12:17PM 39.8419 -86.3508 11° North 265 305 7,800  Level Indianapolis Center
12:18PM 40.0525 -86.2170 43° Northeast  Level FlightAware Approximate
12:18PM 39.9114 -86.2994 30° Northeast 280 322 10,000  Level Indianapolis Center
12:19PM 40.1047 -86.1511 44° Northeast  Level FlightAware Approximate
12:19PM 39.9883 -86.2419 30° Northeast 309 356 11,200  Level Indianapolis Center
12:20PM 40.0792 -86.2117 14° North 333 383 13,500 2,040 Climbing Indianapolis Center
12:21PM 40.1686 -86.1919 10° North 326 375 15,500 1,920 Climbing Indianapolis Center
12:22PM 40.2756 -86.2036 355° North 321 369 17,700 1,440 Climbing Chicago Center
12:23PM 40.3656 -86.2117 356° North 323 372 18,700 780 Climbing Chicago Center
12:24PM 40.4622 -86.2522 342° North 372 428 19,300 480 Climbing Chicago Center
12:25PM 40.5619 -86.3017 339° North 384 442 19,800 480 Climbing Chicago Center
12:26PM 40.6911 -86.3639 340° North 410 472 20,400 480 Climbing Chicago Center
12:27PM 40.7925 -86.4128 340° North 419 482 20,900 240 Climbing Chicago Center
12:28PM 40.9028 -86.4678 339° North 422 486 21,000  Climbing Chicago Center
12:29PM 41.0153 -86.5228 340° North 429 494 21,000 -900 Level Chicago Center
12:30PM 41.1261 -86.5775 340° North 426 490 19,200 -2,100 Descending Chicago Center
12:31PM 41.2542 -86.6411 340° North 410 472 16,700 -2,400 Descending Chicago Center
12:32PM 41.3569 -86.6925 339° North 398 458 14,400 -1,980 Descending Chicago Center
12:33PM 41.4636 -86.7319 345° North 378 435 12,700 -1,200 Descending Chicago Center
12:34PM 41.5631 -86.7564 350° North 369 425 12,000 -360 Descending Chicago Center
12:35PM 41.6622 -86.7811 349° North 366 421 12,000  Level Chicago Center
12:36PM 41.7597 -86.8056 349° North 362 417 12,000  Level Chicago Center
12:37PM 41.8561 -86.8289 350° North 356 410 12,000 -420 Level Chicago Center
12:38PM 41.9272 -86.9400 311° West 356 410 11,200 -960 Descending Chicago Center
12:39PM 41.9717 -87.0497 299° West 343 395 10,100 -600 Descending Chicago Center
12:41PM 41.9789 -87.1653 275° West 331 381 10,000  Descending Chicago Center
12:42PM 41.9817 -87.2878 272° West 329 379 10,100 -360 Climbing Chicago Center
12:43PM 41.9853 -87.3931 273° West 293 337 9,300 -1,560 Descending Chicago Center
12:44PM 41.9814 -87.5053 267° West 256 295 6,900 -2,100 Descending Chicago Center
12:45PM 41.9836 -87.5967 272° West 249 287 5,000 -1,920 Descending Chicago Center